createdAt,value
2023-04-02T00:00:47.329Z,100786.18
2023-04-02T00:05:54.487Z,100789.75
2023-04-02T00:11:01.954Z,100793.72
2023-04-02T00:16:10.565Z,100803.50
2023-04-02T00:21:21.810Z,100809.48
2023-04-02T00:26:36.872Z,100816.75
2023-04-02T00:31:48.216Z,100813.02
2023-04-02T00:36:54.498Z,100824.95
2023-04-02T00:42:07.108Z,100831.58
2023-04-02T00:47:34.260Z,100837.08
2023-04-02T00:52:41.802Z,100830.09
2023-04-02T00:57:49.205Z,100840.95
2023-04-02T01:03:17.104Z,100840.41
2023-04-02T01:08:42.001Z,100848.09
2023-04-02T01:14:05.544Z,100850.96
2023-04-02T01:19:47.420Z,100855.98
2023-04-02T01:24:54.753Z,100862.30
2023-04-02T01:30:03.452Z,100871.80
2023-04-02T01:35:10.606Z,100875.27
2023-04-02T01:40:21.999Z,100881.02
2023-04-02T01:45:28.995Z,100887.13
2023-04-02T01:50:41.841Z,100899.11
2023-04-02T01:55:50.830Z,100907.11
2023-04-02T02:01:06.130Z,100913.73
2023-04-02T02:06:17.249Z,100914.87
2023-04-02T02:11:26.217Z,100927.41
2023-04-02T02:16:33.362Z,100928.18
2023-04-02T02:21:44.742Z,100929.79
2023-04-02T02:26:53.199Z,100944.48
2023-04-02T02:32:01.064Z,100952.41
2023-04-02T02:37:25.800Z,100956.82
2023-04-02T02:42:37.397Z,100968.70
2023-04-02T02:47:45.125Z,100978.91
2023-04-02T02:52:57.461Z,100981.49
2023-04-02T02:58:26.601Z,100989.51
2023-04-02T03:03:41.051Z,100996.95
2023-04-02T03:08:50.853Z,101000.48
2023-04-02T03:14:01.114Z,101007.86
2023-04-02T03:19:25.934Z,101022.92
2023-04-02T03:24:34.780Z,101029.50
2023-04-02T03:29:44.095Z,101033.48
2023-04-02T03:34:59.260Z,101040.84
2023-04-02T03:40:11.909Z,101058.88
2023-04-02T03:45:26.356Z,101068.31
2023-04-02T03:50:44.000Z,101073.98
2023-04-02T03:55:50.554Z,101083.55
2023-04-02T04:01:17.635Z,101100.68
2023-04-02T04:06:32.355Z,101107.13
2023-04-02T04:11:47.597Z,101107.13
2023-04-02T04:17:03.934Z,101112.52
2023-04-02T04:22:19.240Z,101123.70
2023-04-02T04:27:38.092Z,101135.80
2023-04-02T04:32:55.385Z,101138.67
2023-04-02T04:38:16.297Z,101144.11
2023-04-02T04:43:41.418Z,101160.72
2023-04-02T04:48:53.336Z,101178.13
2023-04-02T04:54:01.027Z,101188.48
2023-04-02T04:59:23.175Z,101188.48
2023-04-02T05:04:38.794Z,101205.44
2023-04-02T05:10:01.294Z,101205.44
2023-04-02T05:15:31.340Z,101219.58
2023-04-02T05:20:40.934Z,101219.50
2023-04-02T05:25:56.564Z,101225.77
2023-04-02T05:31:08.662Z,101236.96
2023-04-02T05:36:23.227Z,101242.11
2023-04-02T05:41:34.869Z,101250.97
2023-04-02T05:46:53.852Z,101253.14
2023-04-02T05:52:04.126Z,101265.98
2023-04-02T05:57:12.865Z,101266.06
2023-04-02T06:02:34.252Z,101272.00
2023-04-02T06:07:47.125Z,101275.22
2023-04-02T06:13:01.801Z,101293.73
2023-04-02T06:18:27.020Z,101285.03
2023-04-02T06:23:50.063Z,101306.35
2023-04-02T06:28:58.892Z,101310.25
2023-04-02T06:34:07.820Z,101319.61
2023-04-02T06:39:22.940Z,101330.22
2023-04-02T06:44:32.470Z,101339.11
2023-04-02T06:50:04.066Z,101345.91
2023-04-02T06:55:41.383Z,101358.57
2023-04-02T07:00:49.990Z,101359.00
2023-04-02T07:05:58.549Z,101360.13
2023-04-02T07:11:04.290Z,101372.27
2023-04-02T07:16:16.248Z,101381.84
2023-04-02T07:21:25.011Z,101390.70
2023-04-02T07:26:30.886Z,101397.34
2023-04-02T07:31:37.976Z,101416.30
2023-04-02T07:36:43.615Z,101415.18
2023-04-02T07:41:55.330Z,101419.75
2023-04-02T07:47:01.407Z,101429.00
2023-04-02T07:52:07.470Z,101440.05
2023-04-02T07:57:13.356Z,101436.27
2023-04-02T08:02:23.700Z,101452.16
2023-04-02T08:07:29.741Z,101463.25
2023-04-02T08:12:35.596Z,101469.06
2023-04-02T08:17:43.230Z,101472.22
2023-04-02T08:22:50.668Z,101476.49
2023-04-02T08:27:56.482Z,101486.96
2023-04-02T08:33:02.121Z,101501.98
2023-04-02T08:38:07.728Z,101498.84
2023-04-02T08:43:39.225Z,101498.58
2023-04-02T08:48:47.360Z,101501.30
2023-04-02T08:53:58.876Z,101497.02
2023-04-02T08:59:07.373Z,101492.55
2023-04-02T09:04:21.822Z,101509.93
2023-04-02T09:09:28.902Z,101508.16
2023-04-02T09:14:52.917Z,101517.11
2023-04-02T09:20:10.430Z,101518.75
2023-04-02T09:25:28.090Z,101530.88
2023-04-02T09:30:45.452Z,101534.62
2023-04-02T09:35:54.049Z,101549.26
2023-04-02T09:41:03.771Z,101552.05
2023-04-02T09:46:21.155Z,101566.80
2023-04-02T09:51:33.387Z,101572.47
2023-04-02T09:56:41.437Z,101578.63
2023-04-02T10:01:50.063Z,101591.95
2023-04-02T10:07:00.082Z,101595.26
2023-04-02T10:12:11.006Z,101601.77
2023-04-02T10:17:28.539Z,101601.78
2023-04-02T10:22:34.744Z,101601.02
2023-04-02T10:27:52.300Z,101608.75
2023-04-02T10:33:06.638Z,101617.08
2023-04-02T10:38:27.007Z,101613.58
2023-04-02T10:43:50.544Z,101620.17
2023-04-02T10:49:01.810Z,101640.86
2023-04-02T10:54:30.750Z,101633.06
2023-04-02T10:59:38.562Z,101635.19
2023-04-02T11:04:48.860Z,101647.55
2023-04-02T11:09:57.514Z,101656.09
2023-04-02T11:15:03.779Z,101659.01
2023-04-02T11:20:44.117Z,101662.53
2023-04-02T11:25:50.443Z,101663.76
2023-04-02T11:30:57.592Z,101691.73
2023-04-02T11:36:03.361Z,101703.67
2023-04-02T11:41:08.972Z,101705.36
2023-04-02T11:46:32.731Z,101719.19
2023-04-02T11:51:41.522Z,101716.84
2023-04-02T11:56:52.992Z,101725.13
2023-04-02T12:02:16.682Z,101737.89
2023-04-02T12:07:55.323Z,101734.59
2023-04-02T12:13:00.889Z,101752.50
2023-04-02T12:18:16.257Z,101762.05
2023-04-02T12:23:25.220Z,101755.57
2023-04-02T12:28:33.027Z,101750.69
2023-04-02T12:33:43.377Z,101759.42
2023-04-02T12:38:52.910Z,101766.25
2023-04-02T12:44:01.443Z,101778.63
2023-04-02T12:49:10.279Z,101791.09
2023-04-02T12:54:18.540Z,101805.07
2023-04-02T12:59:39.370Z,101801.07
2023-04-02T13:04:53.655Z,101791.94
2023-04-02T13:10:02.098Z,101813.42
2023-04-02T13:15:11.037Z,101808.67
2023-04-02T13:20:36.448Z,101815.30
2023-04-02T13:25:43.312Z,101813.27
2023-04-02T13:30:49.375Z,101812.35
2023-04-02T13:35:55.158Z,101812.81
2023-04-02T13:41:00.916Z,101839.63
2023-04-02T13:46:08.075Z,101831.34
2023-04-02T13:51:16.548Z,101822.14
2023-04-02T13:56:23.558Z,101835.77
2023-04-02T14:01:29.198Z,101838.73
2023-04-02T14:07:01.669Z,101843.85
2023-04-02T14:12:31.143Z,101859.08
2023-04-02T14:17:40.118Z,101862.70
2023-04-02T14:23:06.834Z,101865.05
2023-04-02T14:28:41.657Z,101859.62
2023-04-02T14:34:02.202Z,101869.27
2023-04-02T14:39:16.449Z,101868.50
2023-04-02T14:44:25.173Z,101885.04
2023-04-02T14:49:41.406Z,101884.67
2023-04-02T14:54:58.764Z,101890.80
2023-04-02T15:00:10.514Z,101895.63
2023-04-02T15:05:31.018Z,101900.56
2023-04-02T15:10:39.506Z,101907.97
2023-04-02T15:15:55.499Z,101920.42
2023-04-02T15:21:10.496Z,101914.00
2023-04-02T15:26:43.361Z,101927.60
2023-04-02T15:31:49.475Z,101940.31
2023-04-02T15:36:58.044Z,101932.58
2023-04-02T15:42:21.526Z,101952.50
2023-04-02T15:47:39.111Z,101953.38
2023-04-02T15:52:53.407Z,101962.46
2023-04-02T15:58:13.549Z,101967.08
2023-04-02T16:03:30.671Z,101967.30
2023-04-02T16:08:49.889Z,101987.89
2023-04-02T16:14:07.523Z,102000.97
2023-04-02T16:19:38.466Z,101996.35
2023-04-02T16:24:44.462Z,102021.28
2023-04-02T16:30:11.327Z,102021.48
2023-04-02T16:35:44.028Z,102042.53
2023-04-02T16:41:07.720Z,102045.27
2023-04-02T16:46:08.673Z,102058.17
2023-04-02T16:51:26.233Z,102069.38
2023-04-02T16:56:49.739Z,102078.07
2023-04-02T17:02:15.911Z,102090.20
2023-04-02T17:07:30.482Z,102094.19
2023-04-02T17:12:39.042Z,102109.29
2023-04-02T17:17:45.905Z,102125.73
2023-04-02T17:22:53.493Z,102127.98
2023-04-02T17:27:59.275Z,102137.89
2023-04-02T17:33:07.877Z,102147.77
2023-04-02T17:38:28.063Z,102149.02
2023-04-02T17:43:54.526Z,102159.89
2023-04-02T17:49:22.996Z,102172.29
2023-04-02T17:54:34.536Z,102179.97
2023-04-02T17:59:48.857Z,102194.25
2023-04-02T18:05:09.356Z,102200.63
2023-04-02T18:10:36.647Z,102215.45
2023-04-02T18:16:03.354Z,102210.64
2023-04-02T18:21:14.450Z,102220.91
2023-04-02T18:26:34.951Z,102238.75
2023-04-02T18:31:55.598Z,102242.73
2023-04-02T18:37:22.063Z,102256.00
2023-04-02T18:42:42.574Z,102274.55
2023-04-02T18:47:56.601Z,102282.13
2023-04-02T18:53:14.430Z,102289.73
2023-04-02T18:58:22.986Z,102289.73
2023-04-02T19:03:34.477Z,102300.42
2023-04-02T19:08:58.261Z,102300.42
2023-04-02T19:14:09.554Z,102311.04
2023-04-02T19:19:27.131Z,102315.98
2023-04-02T19:24:36.351Z,102328.36
2023-04-02T19:30:09.283Z,102343.31
2023-04-02T19:35:26.709Z,102345.58
2023-04-02T19:40:41.073Z,102348.69
2023-04-02T19:45:53.433Z,102363.77
2023-04-02T19:51:00.477Z,102365.54
2023-04-02T19:56:06.291Z,102365.54
2023-04-02T20:01:11.805Z,102373.05
2023-04-02T20:06:17.411Z,102373.05
2023-04-02T20:11:22.961Z,102391.20
2023-04-02T20:16:28.554Z,102391.20
2023-04-02T20:21:35.835Z,102391.20
2023-04-02T20:26:41.409Z,102396.09
2023-04-02T20:31:46.947Z,102411.48
2023-04-02T20:36:53.784Z,102411.96
2023-04-02T20:42:01.288Z,102419.45
2023-04-02T20:47:07.477Z,102420.34
2023-04-02T20:52:12.910Z,102431.36
2023-04-02T20:57:20.095Z,102440.18
2023-04-02T21:02:25.696Z,102449.88
2023-04-02T21:07:31.557Z,102457.37
2023-04-02T21:12:41.458Z,102463.98
2023-04-02T21:17:47.192Z,102464.86
2023-04-02T21:22:53.098Z,102468.39
2023-04-02T21:27:58.608Z,102474.58
2023-04-02T21:33:04.205Z,102482.06
2023-04-02T21:38:09.846Z,102489.11
2023-04-02T21:43:15.526Z,102495.29
2023-04-02T21:48:20.995Z,102503.20
2023-04-02T21:53:26.667Z,102497.91
2023-04-02T21:58:32.591Z,102497.47
2023-04-02T22:03:39.095Z,102507.17
2023-04-02T22:08:45.993Z,102507.18
2023-04-02T22:13:51.866Z,102512.02
2023-04-02T22:19:01.327Z,102515.11
2023-04-02T22:24:14.213Z,102514.23
2023-04-02T22:29:20.716Z,102513.34
2023-04-02T22:34:26.320Z,102511.14
2023-04-02T22:39:31.813Z,102515.11
2023-04-02T22:44:37.241Z,102515.55
2023-04-02T22:49:42.883Z,102523.47
2023-04-02T22:54:48.306Z,102528.74
2023-04-02T22:59:53.807Z,102525.23
2023-04-02T23:04:59.337Z,102525.64
2023-04-02T23:10:06.521Z,102524.34
2023-04-02T23:15:12.891Z,102524.81
2023-04-02T23:20:18.560Z,102521.27
2023-04-02T23:25:24.135Z,102521.72
2023-04-02T23:30:29.601Z,102521.72
2023-04-02T23:35:35.824Z,102515.98
2023-04-02T23:40:41.730Z,102514.19
2023-04-02T23:45:51.198Z,102518.17
2023-04-02T23:50:56.703Z,102522.14
2023-04-02T23:56:02.405Z,102521.27
